sensor_id;sensor_type;location;lat;lon;timestamp;P1;durP1;ratioP1;P2;durP2;ratioP2
71360;SDS011;59166;48.908;1.870;2024-03-23T06:47:09;6.90;;;1.40;;
71360;SDS011;59166;48.908;1.870;2024-03-23T07:02:11;9.30;;;1.50;;
71360;SDS011;59166;48.908;1.870;2024-03-23T07:22:14;8.05;;;1.20;;
71360;SDS011;59166;48.908;1.870;2024-03-23T07:27:15;6.25;;;1.00;;
71360;SDS011;59166;48.908;1.870;2024-03-23T07:32:17;7.03;;;1.17;;
71360;SDS011;59166;48.908;1.870;2024-03-23T07:37:18;6.78;;;1.25;;
71360;SDS011;59166;48.908;1.870;2024-03-23T07:42:18;6.85;;;1.00;;
71360;SDS011;59166;48.908;1.870;2024-03-23T07:47:20;5.50;;;1.10;;
71360;SDS011;59166;48.908;1.870;2024-03-23T07:52:21;6.38;;;1.00;;
71360;SDS011;59166;48.908;1.870;2024-03-23T07:57:22;3.57;;;0.70;;
71360;SDS011;59166;48.908;1.870;2024-03-23T08:02:24;3.95;;;0.88;;
71360;SDS011;59166;48.908;1.870;2024-03-23T08:07:24;7.10;;;1.15;;
71360;SDS011;59166;48.908;1.870;2024-03-23T08:12:25;5.45;;;0.90;;
71360;SDS011;59166;48.908;1.870;2024-03-23T08:17:27;4.80;;;0.80;;
71360;SDS011;59166;48.908;1.870;2024-03-23T08:22:27;7.90;;;1.07;;
71360;SDS011;59166;48.908;1.870;2024-03-23T08:27:28;6.17;;;1.00;;
71360;SDS011;59166;48.908;1.870;2024-03-23T08:32:30;3.13;;;0.90;;
71360;SDS011;59166;48.908;1.870;2024-03-23T08:37:31;5.27;;;0.90;;
71360;SDS011;59166;48.908;1.870;2024-03-23T08:42:31;8.30;;;1.10;;
71360;SDS011;59166;48.908;1.870;2024-03-23T08:47:35;7.17;;;1.10;;
71360;SDS011;59166;48.908;1.870;2024-03-23T08:52:35;5.95;;;1.00;;
71360;SDS011;59166;48.908;1.870;2024-03-23T08:57:36;5.33;;;0.97;;
71360;SDS011;59166;48.908;1.870;2024-03-23T09:02:38;3.80;;;0.73;;
71360;SDS011;59166;48.908;1.870;2024-03-23T09:07:39;2.63;;;0.60;;
71360;SDS011;59166;48.908;1.870;2024-03-23T09:12:39;2.78;;;0.70;;
71360;SDS011;59166;48.908;1.870;2024-03-23T09:17:41;5.83;;;1.00;;
71360;SDS011;59166;48.908;1.870;2024-03-23T09:22:42;5.32;;;0.90;;
71360;SDS011;59166;48.908;1.870;2024-03-23T09:27:42;8.03;;;1.03;;
71360;SDS011;59166;48.908;1.870;2024-03-23T09:32:46;6.40;;;1.30;;
71360;SDS011;59166;48.908;1.870;2024-03-23T09:37:47;7.50;;;1.20;;
71360;SDS011;59166;48.908;1.870;2024-03-23T09:42:49;9.00;;;1.20;;
71360;SDS011;59166;48.908;1.870;2024-03-23T09:47:52;3.60;;;0.90;;
71360;SDS011;59166;48.908;1.870;2024-03-23T09:52:52;5.85;;;1.40;;
71360;SDS011;59166;48.908;1.870;2024-03-23T09:57:53;4.60;;;0.93;;
71360;SDS011;59166;48.908;1.870;2024-03-23T10:02:56;6.70;;;1.00;;
71360;SDS011;59166;48.908;1.870;2024-03-23T10:07:58;7.90;;;1.15;;
71360;SDS011;59166;48.908;1.870;2024-03-23T10:12:58;7.82;;;1.25;;
71360;SDS011;59166;48.908;1.870;2024-03-23T10:18:00;5.95;;;1.00;;
71360;SDS011;59166;48.908;1.870;2024-03-23T10:23:18;9.70;;;1.10;;
71360;SDS011;59166;48.908;1.870;2024-03-23T10:28:18;6.55;;;0.90;;
71360;SDS011;59166;48.908;1.870;2024-03-23T10:33:20;5.70;;;1.10;;
71360;SDS011;59166;48.908;1.870;2024-03-23T10:48:23;9.70;;;1.30;;
71360;SDS011;59166;48.908;1.870;2024-03-23T10:53:25;9.73;;;1.40;;
71360;SDS011;59166;48.908;1.870;2024-03-23T10:58:28;9.45;;;1.10;;
71360;SDS011;59166;48.908;1.870;2024-03-23T11:03:34;5.30;;;1.10;;
71360;SDS011;59166;48.908;1.870;2024-03-23T11:08:36;6.60;;;0.80;;
71360;SDS011;59166;48.908;1.870;2024-03-23T11:13:37;6.90;;;0.90;;
71360;SDS011;59166;48.908;1.870;2024-03-23T11:18:39;5.53;;;1.10;;
71360;SDS011;59166;48.908;1.870;2024-03-23T11:33:42;6.60;;;0.80;;
71360;SDS011;59166;48.908;1.870;2024-03-23T11:53:50;4.60;;;0.80;;
71360;SDS011;59166;48.908;1.870;2024-03-23T11:58:51;6.50;;;0.80;;
71360;SDS011;59166;48.908;1.870;2024-03-23T12:03:53;4.10;;;0.60;;
71360;SDS011;59166;48.908;1.870;2024-03-23T12:34:10;5.60;;;0.90;;
71360;SDS011;59166;48.908;1.870;2024-03-23T12:39:11;1.75;;;0.40;;
71360;SDS011;59166;48.908;1.870;2024-03-23T12:49:13;4.20;;;0.90;;
71360;SDS011;59166;48.908;1.870;2024-03-23T12:54:14;4.75;;;0.90;;
71360;SDS011;59166;48.908;1.870;2024-03-23T12:59:15;4.93;;;1.00;;
71360;SDS011;59166;48.908;1.870;2024-03-23T13:04:17;4.90;;;0.70;;
71360;SDS011;59166;48.908;1.870;2024-03-23T13:09:17;3.45;;;0.60;;
71360;SDS011;59166;48.908;1.870;2024-03-23T13:14:18;4.85;;;0.70;;
71360;SDS011;59166;48.908;1.870;2024-03-23T13:19:20;3.70;;;0.70;;
71360;SDS011;59166;48.908;1.870;2024-03-23T13:24:24;6.60;;;0.93;;
71360;SDS011;59166;48.908;1.870;2024-03-23T13:29:24;3.80;;;0.65;;
71360;SDS011;59166;48.908;1.870;2024-03-23T13:34:26;3.80;;;0.80;;
71360;SDS011;59166;48.908;1.870;2024-03-23T13:39:27;3.05;;;0.75;;
71360;SDS011;59166;48.908;1.870;2024-03-23T13:44:27;5.20;;;0.90;;
71360;SDS011;59166;48.908;1.870;2024-03-23T13:49:30;3.15;;;0.75;;
71360;SDS011;59166;48.908;1.870;2024-03-23T13:59:31;2.13;;;0.67;;
71360;SDS011;59166;48.908;1.870;2024-03-23T14:04:33;4.63;;;0.90;;
71360;SDS011;59166;48.908;1.870;2024-03-23T14:09:34;5.90;;;1.10;;
71360;SDS011;59166;48.908;1.870;2024-03-23T14:14:34;2.67;;;0.70;;
71360;SDS011;59166;48.908;1.870;2024-03-23T14:19:36;3.57;;;0.90;;
71360;SDS011;59166;48.908;1.870;2024-03-23T14:24:37;4.40;;;0.90;;
71360;SDS011;59166;48.908;1.870;2024-03-23T14:29:37;5.40;;;1.00;;
71360;SDS011;59166;48.908;1.870;2024-03-23T14:34:39;4.77;;;1.00;;
71360;SDS011;59166;48.908;1.870;2024-03-23T14:39:40;4.05;;;1.00;;
71360;SDS011;59166;48.908;1.870;2024-03-23T14:44:41;6.32;;;1.08;;
71360;SDS011;59166;48.908;1.870;2024-03-23T14:49:43;7.87;;;1.13;;
71360;SDS011;59166;48.908;1.870;2024-03-23T14:54:43;5.27;;;1.00;;
71360;SDS011;59166;48.908;1.870;2024-03-23T14:59:44;6.65;;;0.90;;
71360;SDS011;59166;48.908;1.870;2024-03-23T15:04:46;5.10;;;0.90;;
71360;SDS011;59166;48.908;1.870;2024-03-23T15:09:46;5.13;;;1.10;;
71360;SDS011;59166;48.908;1.870;2024-03-23T15:14:47;3.77;;;0.80;;
71360;SDS011;59166;48.908;1.870;2024-03-23T15:19:49;2.77;;;0.60;;
71360;SDS011;59166;48.908;1.870;2024-03-23T15:24:50;3.88;;;0.98;;
71360;SDS011;59166;48.908;1.870;2024-03-23T15:29:50;5.13;;;1.10;;
71360;SDS011;59166;48.908;1.870;2024-03-23T15:34:52;2.42;;;0.70;;
71360;SDS011;59166;48.908;1.870;2024-03-23T15:39:53;5.33;;;1.10;;
71360;SDS011;59166;48.908;1.870;2024-03-23T15:44:53;7.45;;;1.00;;
71360;SDS011;59166;48.908;1.870;2024-03-23T15:49:55;5.93;;;0.90;;
71360;SDS011;59166;48.908;1.870;2024-03-23T15:54:56;3.53;;;0.80;;
71360;SDS011;59166;48.908;1.870;2024-03-23T15:59:56;3.20;;;0.87;;
71360;SDS011;59166;48.908;1.870;2024-03-23T16:04:58;1.87;;;0.50;;
71360;SDS011;59166;48.908;1.870;2024-03-23T16:09:59;4.68;;;0.90;;
71360;SDS011;59166;48.908;1.870;2024-03-23T16:14:59;4.43;;;0.80;;
71360;SDS011;59166;48.908;1.870;2024-03-23T16:20:01;3.77;;;1.20;;
71360;SDS011;59166;48.908;1.870;2024-03-23T16:25:03;3.00;;;0.50;;
71360;SDS011;59166;48.908;1.870;2024-03-23T16:30:04;2.97;;;1.00;;
71360;SDS011;59166;48.908;1.870;2024-03-23T16:35:07;2.90;;;0.50;;
71360;SDS011;59166;48.908;1.870;2024-03-23T16:40:08;3.33;;;0.80;;
71360;SDS011;59166;48.908;1.870;2024-03-23T16:45:09;1.02;;;0.40;;
71360;SDS011;59166;48.908;1.870;2024-03-23T16:50:11;2.63;;;0.60;;
71360;SDS011;59166;48.908;1.870;2024-03-23T16:55:12;2.05;;;0.50;;
71360;SDS011;59166;48.908;1.870;2024-03-23T17:00:13;0.30;;;0.30;;
71360;SDS011;59166;48.908;1.870;2024-03-23T17:05:15;2.55;;;0.70;;
71360;SDS011;59166;48.908;1.870;2024-03-23T17:10:16;2.97;;;0.60;;
71360;SDS011;59166;48.908;1.870;2024-03-23T17:15:17;3.13;;;0.70;;
71360;SDS011;59166;48.908;1.870;2024-03-23T17:20:19;2.40;;;0.70;;
71360;SDS011;59166;48.908;1.870;2024-03-23T17:25:19;0.70;;;0.40;;
71360;SDS011;59166;48.908;1.870;2024-03-23T17:30:20;2.20;;;0.70;;
71360;SDS011;59166;48.908;1.870;2024-03-23T17:35:22;2.30;;;0.60;;
71360;SDS011;59166;48.908;1.870;2024-03-23T17:40:23;1.90;;;0.60;;
71360;SDS011;59166;48.908;1.870;2024-03-23T17:45:23;2.40;;;0.57;;
71360;SDS011;59166;48.908;1.870;2024-03-23T17:50:26;2.15;;;0.70;;
71360;SDS011;59166;48.908;1.870;2024-03-23T17:55:26;2.75;;;0.75;;
71360;SDS011;59166;48.908;1.870;2024-03-23T18:00:27;4.87;;;1.10;;
71360;SDS011;59166;48.908;1.870;2024-03-23T18:05:29;3.13;;;0.90;;
71360;SDS011;59166;48.908;1.870;2024-03-23T18:10:30;3.15;;;0.90;;
71360;SDS011;59166;48.908;1.870;2024-03-23T18:15:30;3.05;;;0.80;;
71360;SDS011;59166;48.908;1.870;2024-03-23T18:20:32;1.30;;;0.53;;
71360;SDS011;59166;48.908;1.870;2024-03-23T18:25:33;1.95;;;0.70;;
71360;SDS011;59166;48.908;1.870;2024-03-23T18:30:33;2.90;;;1.20;;
71360;SDS011;59166;48.908;1.870;2024-03-23T18:35:36;4.60;;;1.30;;
71360;SDS011;59166;48.908;1.870;2024-03-23T18:40:36;4.00;;;1.10;;
71360;SDS011;59166;48.908;1.870;2024-03-23T18:45:37;4.10;;;1.20;;
71360;SDS011;59166;48.908;1.870;2024-03-23T18:50:47;3.67;;;1.10;;
71360;SDS011;59166;48.908;1.870;2024-03-23T18:55:51;4.97;;;1.30;;
71360;SDS011;59166;48.908;1.870;2024-03-23T19:00:55;5.10;;;1.30;;
71360;SDS011;59166;48.908;1.870;2024-03-23T19:05:58;5.10;;;1.30;;
71360;SDS011;59166;48.908;1.870;2024-03-23T19:11:00;6.70;;;1.40;;
71360;SDS011;59166;48.908;1.870;2024-03-23T19:16:02;4.40;;;0.90;;
71360;SDS011;59166;48.908;1.870;2024-03-23T19:21:04;1.67;;;0.70;;
71360;SDS011;59166;48.908;1.870;2024-03-23T19:26:05;4.50;;;1.05;;
71360;SDS011;59166;48.908;1.870;2024-03-23T19:31:05;4.25;;;1.08;;
71360;SDS011;59166;48.908;1.870;2024-03-23T19:36:08;1.40;;;0.60;;
71360;SDS011;59166;48.908;1.870;2024-03-23T19:41:08;5.80;;;1.00;;
71360;SDS011;59166;48.908;1.870;2024-03-23T19:46:09;2.80;;;0.77;;
71360;SDS011;59166;48.908;1.870;2024-03-23T19:51:11;2.07;;;0.73;;
71360;SDS011;59166;48.908;1.870;2024-03-23T19:56:12;6.35;;;1.10;;
71360;SDS011;59166;48.908;1.870;2024-03-23T20:01:13;3.03;;;0.90;;
71360;SDS011;59166;48.908;1.870;2024-03-23T20:06:16;6.78;;;1.20;;
71360;SDS011;59166;48.908;1.870;2024-03-23T20:11:17;6.57;;;1.17;;
71360;SDS011;59166;48.908;1.870;2024-03-23T20:16:23;4.57;;;1.15;;
71360;SDS011;59166;48.908;1.870;2024-03-23T20:21:25;5.67;;;1.40;;
71360;SDS011;59166;48.908;1.870;2024-03-23T20:26:25;4.75;;;1.20;;
71360;SDS011;59166;48.908;1.870;2024-03-23T20:31:26;6.20;;;1.20;;
71360;SDS011;59166;48.908;1.870;2024-03-23T20:36:28;5.60;;;1.10;;
71360;SDS011;59166;48.908;1.870;2024-03-23T20:41:29;5.15;;;1.10;;
71360;SDS011;59166;48.908;1.870;2024-03-23T20:46:29;5.30;;;1.40;;
71360;SDS011;59166;48.908;1.870;2024-03-23T20:51:31;4.67;;;1.10;;
71360;SDS011;59166;48.908;1.870;2024-03-23T20:56:32;8.15;;;1.40;;
71360;SDS011;59166;48.908;1.870;2024-03-23T21:01:33;4.70;;;1.20;;
71360;SDS011;59166;48.908;1.870;2024-03-23T21:06:35;4.75;;;1.15;;
71360;SDS011;59166;48.908;1.870;2024-03-23T21:11:35;5.90;;;1.30;;
71360;SDS011;59166;48.908;1.870;2024-03-23T21:16:36;4.15;;;1.25;;
71360;SDS011;59166;48.908;1.870;2024-03-23T21:21:38;5.78;;;1.48;;
71360;SDS011;59166;48.908;1.870;2024-03-23T21:26:38;8.15;;;2.00;;
71360;SDS011;59166;48.908;1.870;2024-03-23T21:31:39;4.95;;;1.10;;
71360;SDS011;59166;48.908;1.870;2024-03-23T21:36:41;6.30;;;1.30;;
71360;SDS011;59166;48.908;1.870;2024-03-23T21:41:42;4.20;;;1.10;;
71360;SDS011;59166;48.908;1.870;2024-03-23T21:46:43;5.80;;;1.10;;
71360;SDS011;59166;48.908;1.870;2024-03-23T21:51:45;5.30;;;1.20;;
71360;SDS011;59166;48.908;1.870;2024-03-23T21:56:46;3.92;;;1.10;;
71360;SDS011;59166;48.908;1.870;2024-03-23T22:01:47;5.53;;;1.33;;
71360;SDS011;59166;48.908;1.870;2024-03-23T22:06:49;6.28;;;1.40;;
71360;SDS011;59166;48.908;1.870;2024-03-23T22:11:49;8.67;;;2.40;;
71360;SDS011;59166;48.908;1.870;2024-03-23T22:16:50;7.18;;;2.30;;
71360;SDS011;59166;48.908;1.870;2024-03-23T22:21:52;7.63;;;1.70;;
71360;SDS011;59166;48.908;1.870;2024-03-23T22:26:52;4.28;;;1.20;;
71360;SDS011;59166;48.908;1.870;2024-03-23T22:31:53;6.17;;;1.27;;
71360;SDS011;59166;48.908;1.870;2024-03-23T22:36:55;5.40;;;1.50;;
71360;SDS011;59166;48.908;1.870;2024-03-23T22:41:56;6.30;;;1.20;;
71360;SDS011;59166;48.908;1.870;2024-03-23T22:46:56;6.97;;;1.60;;
71360;SDS011;59166;48.908;1.870;2024-03-23T22:51:58;3.33;;;1.17;;
71360;SDS011;59166;48.908;1.870;2024-03-23T22:56:59;7.03;;;1.50;;
71360;SDS011;59166;48.908;1.870;2024-03-23T23:02:00;3.15;;;0.90;;
71360;SDS011;59166;48.908;1.870;2024-03-23T23:07:02;3.87;;;1.10;;
71360;SDS011;59166;48.908;1.870;2024-03-23T23:12:03;4.78;;;1.23;;
71360;SDS011;59166;48.908;1.870;2024-03-23T23:17:05;6.40;;;1.30;;
71360;SDS011;59166;48.908;1.870;2024-03-23T23:22:07;6.13;;;1.60;;
71360;SDS011;59166;48.908;1.870;2024-03-23T23:27:07;6.20;;;1.70;;
71360;SDS011;59166;48.908;1.870;2024-03-23T23:32:08;5.23;;;1.47;;
71360;SDS011;59166;48.908;1.870;2024-03-23T23:37:10;6.32;;;1.70;;
71360;SDS011;59166;48.908;1.870;2024-03-23T23:42:10;5.87;;;1.40;;
71360;SDS011;59166;48.908;1.870;2024-03-23T23:47:11;5.88;;;1.40;;
71360;SDS011;59166;48.908;1.870;2024-03-23T23:52:13;7.53;;;1.53;;
71360;SDS011;59166;48.908;1.870;2024-03-23T23:57:14;5.00;;;1.10;;
